»·PEaware :: N24Q KSBA-KBUR

N24Q :: KSBA-KBUR

FLIGHT INFORMATION

Flight Status: Arrived
Operator: Privately registered:
United States
More flights under this callsign
Pilot: Steve L. (33327)
Aircraft: CESSNA 172 SKYHAWK
(C172)
More flights by this aircraft type
Origin: KSBA Santa Barbara Mun
United States
Destination: KBUR Bob Hope-Burbank
United States
More flights between these airports :: More routes between these airports
Route:
File this flight plan on PilotEdge
Remarks:
Altitude:
(Current/Filed)
7,500ft
Speed:
(Current/Filed)
0kts
Departed: 22-Feb-21 02:19 PM
Arrived: 22-Feb-21 03:02 PM
Distance/Time
Traveled:
75nm/0:42
Distance/Time
To Go:
Arrived

Flight Plot

Page will automatically refresh every two minutes.


Map Options




Map Legend


Flown Route
Filed Route
Departure Airport
Arrival Airport
Navaid (VOR, NDB)
Fix

Horizontal Profiles

Position Reports

Time Latitude Longitude Heading Altitude Ground
Speed
22-Feb-21 14:05 34.424945 -119.837157 75 17ft 0kts
22-Feb-21 14:06 34.424945 -119.837157 75 17ft 0kts
22-Feb-21 14:06 34.424945 -119.837157 75 17ft 0kts
22-Feb-21 14:08 34.425612 -119.838006 338 18ft 7kts
22-Feb-21 14:09 34.426897 -119.834705 49 16ft 12kts
22-Feb-21 14:09 34.426948 -119.834642 39 15ft 0kts
22-Feb-21 14:11 34.426947 -119.834643 39 15ft 0kts
22-Feb-21 14:11 34.426946 -119.834644 39 15ft 0kts
22-Feb-21 14:12 34.426945 -119.834645 38 15ft 0kts
22-Feb-21 14:13 34.426945 -119.834647 38 15ft 0kts
22-Feb-21 14:15 34.426943 -119.834648 38 15ft 0kts
22-Feb-21 14:16 34.426942 -119.834649 38 15ft 0kts
22-Feb-21 14:16 34.426942 -119.834650 37 15ft 0kts
22-Feb-21 14:17 34.427872 -119.835870 268 14ft 14kts
22-Feb-21 14:18 34.426515 -119.856418 263 501ft 78kts
22-Feb-21 14:19 34.414137 -119.875614 155 1257ft 89kts
22-Feb-21 14:20 34.400024 -119.849678 99 1871ft 100kts
22-Feb-21 14:21 34.393366 -119.816824 103 2521ft 101kts
22-Feb-21 14:22 34.386546 -119.784042 103 3062ft 109kts
22-Feb-21 14:23 34.378765 -119.746403 103 3259ft 120kts
22-Feb-21 14:24 34.370742 -119.707540 103 3452ft 121kts
22-Feb-21 14:25 34.362690 -119.668498 103 3649ft 120kts
22-Feb-21 14:26 34.354853 -119.629679 103 3846ft 120kts
22-Feb-21 14:27 34.347021 -119.590429 103 3968ft 123kts
22-Feb-21 14:28 34.339347 -119.551908 103 4284ft 111kts
22-Feb-21 14:29 34.332514 -119.516987 103 4783ft 105kts
22-Feb-21 14:30 34.326049 -119.483326 103 5280ft 102kts
22-Feb-21 14:31 34.329506 -119.450986 68 5777ft 101kts
22-Feb-21 14:32 34.339885 -119.419966 68 6271ft 100kts
22-Feb-21 14:33 34.349736 -119.389144 69 6767ft 98kts
22-Feb-21 14:34 34.354846 -119.358022 99 7263ft 95kts
22-Feb-21 14:35 34.349409 -119.323900 99 7449ft 115kts
22-Feb-21 14:36 34.343881 -119.287020 100 7452ft 103kts
22-Feb-21 14:37 34.338981 -119.254299 100 7458ft 98kts
22-Feb-21 14:38 34.334031 -119.221483 101 7463ft 106kts
22-Feb-21 14:39 34.328515 -119.185073 101 7457ft 114kts
22-Feb-21 14:40 34.322867 -119.147761 101 7450ft 114kts
22-Feb-21 14:41 34.317238 -119.110725 101 7448ft 114kts
22-Feb-21 14:42 34.311520 -119.073111 101 7448ft 115kts
22-Feb-21 14:44 34.298987 -118.991152 101 6747ft 128kts
22-Feb-21 14:45 34.292548 -118.949059 101 6348ft 128kts
22-Feb-21 14:46 34.286125 -118.907258 101 5954ft 128kts
22-Feb-21 14:47 34.279722 -118.865676 101 5557ft 127kts
22-Feb-21 14:48 34.273338 -118.824297 100 5160ft 126kts
22-Feb-21 14:49 34.267001 -118.783369 100 4765ft 125kts
22-Feb-21 14:50 34.260611 -118.742230 99 4301ft 127kts
22-Feb-21 14:51 34.254199 -118.700865 99 3814ft 128kts
22-Feb-21 14:52 34.247727 -118.659243 99 3314ft 127kts
22-Feb-21 14:53 34.241245 -118.617814 99 2813ft 127kts
22-Feb-21 14:54 34.235160 -118.578842 98 2826ft 108kts
22-Feb-21 14:55 34.229702 -118.544116 99 2940ft 103kts
22-Feb-21 14:56 34.224531 -118.511184 99 2947ft 100kts
22-Feb-21 14:57 34.219014 -118.476168 99 2672ft 110kts
22-Feb-21 14:58 34.213421 -118.440698 99 1930ft 110kts
22-Feb-21 14:59 34.207894 -118.406892 108 1398ft 99kts
22-Feb-21 15:00 34.198062 -118.382536 91 1115ft 65kts
22-Feb-21 15:01 34.197774 -118.365343 92 724ft 26kts
22-Feb-21 15:02 34.198712 -118.364560 2 720ft 0kts
22-Feb-21 15:03 34.198712 -118.364560 2 720ft 0kts
22-Feb-21 15:04 34.198975 -118.363623 107 718ft 14kts
22-Feb-21 15:05 34.199080 -118.360329 35 716ft 8kts
22-Feb-21 15:06 34.199846 -118.359650 38 718ft 0kts

Navigation Log

Ident Type
Flight plan parsing failed, navigation log unavailable